createdAt,value
2023-04-18T00:01:05.901Z,46.22
2023-04-18T00:03:34.354Z,46.46
2023-04-18T00:06:01.663Z,46.69
2023-04-18T00:08:28.398Z,46.77
2023-04-18T00:10:54.997Z,46.56
2023-04-18T00:13:22.287Z,46.69
2023-04-18T00:15:48.861Z,46.54
2023-04-18T00:18:16.845Z,46.17
2023-04-18T00:20:45.585Z,46.39
2023-04-18T00:23:13.559Z,46.17
2023-04-18T00:25:40.252Z,45.68
2023-04-18T00:28:06.852Z,45.92
2023-04-18T00:30:33.437Z,46.00
2023-04-18T00:33:00.212Z,46.38
2023-04-18T00:35:26.798Z,46.11
2023-04-18T00:37:53.363Z,45.95
2023-04-18T00:40:19.895Z,45.85
2023-04-18T00:42:46.638Z,46.01
2023-04-18T00:45:14.074Z,45.88
2023-04-18T00:47:40.927Z,45.83
2023-04-18T00:50:09.286Z,45.77
2023-04-18T00:52:36.256Z,45.97
2023-04-18T00:55:06.378Z,45.91
2023-04-18T00:57:33.626Z,46.10
2023-04-18T01:00:01.625Z,46.07
2023-04-18T01:02:29.874Z,46.29
2023-04-18T01:04:58.110Z,46.36
2023-04-18T01:07:26.016Z,46.00
2023-04-18T01:09:55.194Z,45.81
2023-04-18T01:12:22.870Z,45.89
2023-04-18T01:14:49.355Z,45.95
2023-04-18T01:17:16.856Z,45.92
2023-04-18T01:19:46.202Z,45.72
2023-04-18T01:22:13.561Z,46.11
2023-04-18T01:24:41.596Z,46.79
2023-04-18T01:27:15.402Z,47.18
2023-04-18T01:29:41.899Z,47.32
2023-04-18T01:32:09.577Z,47.35
2023-04-18T01:34:37.032Z,47.52
2023-04-18T01:37:05.854Z,47.11
2023-04-18T01:39:32.976Z,47.28
2023-04-18T01:42:01.283Z,47.51
2023-04-18T01:44:27.839Z,47.71
2023-04-18T01:46:54.410Z,47.83
2023-04-18T01:49:20.988Z,47.77
2023-04-18T01:51:48.949Z,48.06
2023-04-18T01:54:15.725Z,47.62
2023-04-18T01:56:42.553Z,47.83
2023-04-18T01:59:09.107Z,47.79
2023-04-18T02:01:35.619Z,47.68
2023-04-18T02:04:02.296Z,47.71
2023-04-18T02:06:29.241Z,47.57
2023-04-18T02:08:55.792Z,47.67
2023-04-18T02:11:24.866Z,47.67
2023-04-18T02:13:51.556Z,47.85
2023-04-18T02:16:18.861Z,47.86
2023-04-18T02:18:45.547Z,47.93
2023-04-18T02:21:13.609Z,48.07
2023-04-18T02:23:40.090Z,48.42
2023-04-18T02:26:06.685Z,48.39
2023-04-18T02:28:33.537Z,48.63
2023-04-18T02:31:03.024Z,48.50
2023-04-18T02:33:30.187Z,48.29
2023-04-18T02:35:56.734Z,48.50
2023-04-18T02:38:23.415Z,48.55
2023-04-18T02:40:51.920Z,48.64
2023-04-18T02:43:20.290Z,48.55
2023-04-18T02:45:46.819Z,48.71
2023-04-18T02:48:14.894Z,48.93
2023-04-18T02:50:41.592Z,49.15
2023-04-18T02:53:08.139Z,49.20
2023-04-18T02:55:46.805Z,49.26
2023-04-18T02:58:13.357Z,49.57
2023-04-18T03:00:58.190Z,49.14
2023-04-18T03:03:43.602Z,49.66
2023-04-18T03:06:59.597Z,50.84
2023-04-18T03:09:28.793Z,50.01
2023-04-18T03:12:02.222Z,49.90
2023-04-18T03:14:32.184Z,50.16
2023-04-18T03:17:02.901Z,50.16
2023-04-18T03:19:36.485Z,50.15
2023-04-18T03:22:07.599Z,50.20
2023-04-18T03:24:37.072Z,50.32
2023-04-18T03:27:09.770Z,50.45
2023-04-18T03:29:38.598Z,50.25
2023-04-18T03:32:07.474Z,50.39
2023-04-18T03:34:36.190Z,50.31
2023-04-18T03:37:05.356Z,50.38
2023-04-18T03:39:36.522Z,50.29
2023-04-18T03:42:04.554Z,50.47
2023-04-18T03:44:32.903Z,50.52
2023-04-18T03:47:00.805Z,50.43
2023-04-18T03:49:29.529Z,50.51
2023-04-18T03:51:57.511Z,50.78
2023-04-18T03:54:25.712Z,50.69
2023-04-18T03:56:53.714Z,50.49
2023-04-18T03:59:21.888Z,50.51
2023-04-18T04:01:51.000Z,50.74
2023-04-18T04:04:19.527Z,50.67
2023-04-18T04:06:47.741Z,50.74
2023-04-18T04:09:18.915Z,50.95
2023-04-18T04:11:48.285Z,51.00
2023-04-18T04:14:16.343Z,51.38
2023-04-18T04:16:46.611Z,51.11
2023-04-18T04:19:17.781Z,51.11
2023-04-18T04:21:54.874Z,50.89
2023-04-18T04:24:23.068Z,50.90
2023-04-18T04:26:52.021Z,50.62
2023-04-18T04:29:23.917Z,50.52
2023-04-18T04:31:52.763Z,50.66
2023-04-18T04:34:28.048Z,51.03
2023-04-18T04:36:56.122Z,50.79
2023-04-18T04:39:25.556Z,50.67
2023-04-18T04:42:12.253Z,50.83
2023-04-18T04:44:50.420Z,50.73
2023-04-18T04:47:19.287Z,50.53
2023-04-18T04:49:47.184Z,50.71
2023-04-18T04:52:15.377Z,50.54
2023-04-18T04:54:45.010Z,50.62
2023-04-18T04:57:14.039Z,50.31
2023-04-18T04:59:42.046Z,50.51
2023-04-18T05:02:09.973Z,50.19
2023-04-18T05:04:38.332Z,50.34
2023-04-18T05:07:06.489Z,49.97
2023-04-18T05:09:34.509Z,50.17
2023-04-18T05:12:03.100Z,50.16
2023-04-18T05:14:31.458Z,49.95
2023-04-18T05:16:59.455Z,49.81
2023-04-18T05:19:27.572Z,49.70
2023-04-18T05:21:56.061Z,49.56
2023-04-18T05:24:23.969Z,49.73
2023-04-18T05:26:53.070Z,49.48
2023-04-18T05:29:22.092Z,48.59
2023-04-18T05:31:50.005Z,48.94
2023-04-18T05:34:17.925Z,48.62
2023-04-18T05:36:47.766Z,48.59
2023-04-18T05:39:17.199Z,48.39
2023-04-18T05:41:45.178Z,48.41
2023-04-18T05:44:13.125Z,48.22
2023-04-18T05:46:41.138Z,48.27
2023-04-18T05:49:09.055Z,47.69
2023-04-18T05:51:37.161Z,47.61
2023-04-18T05:54:05.099Z,47.49
2023-04-18T05:56:34.419Z,47.54
2023-04-18T05:59:02.391Z,46.99
2023-04-18T06:01:32.628Z,46.73
2023-04-18T06:04:01.198Z,46.42
2023-04-18T06:06:29.614Z,46.26
2023-04-18T06:08:57.485Z,46.07
2023-04-18T06:11:25.486Z,45.11
2023-04-18T06:13:56.256Z,45.10
2023-04-18T06:16:24.174Z,44.46
2023-04-18T06:18:52.154Z,44.74
2023-04-18T06:21:21.296Z,44.77
2023-04-18T06:23:49.244Z,44.79
2023-04-18T06:26:17.636Z,44.45
2023-04-18T06:28:45.562Z,44.31
2023-04-18T06:31:13.482Z,44.08
2023-04-18T06:33:41.755Z,43.81
2023-04-18T06:36:10.774Z,43.31
2023-04-18T06:38:38.986Z,42.61
2023-04-18T06:41:07.905Z,42.03
2023-04-18T06:43:36.279Z,42.03
2023-04-18T06:46:05.154Z,41.23
2023-04-18T06:48:33.955Z,41.32
2023-04-18T06:51:02.951Z,40.95
2023-04-18T06:53:30.944Z,40.82
2023-04-18T06:55:58.907Z,41.18
2023-04-18T06:58:27.984Z,40.82
2023-04-18T07:00:55.966Z,40.66
2023-04-18T07:03:24.488Z,40.23
2023-04-18T07:05:52.720Z,39.86
2023-04-18T07:08:20.632Z,39.93
2023-04-18T07:10:48.763Z,39.77
2023-04-18T07:13:17.251Z,39.79
2023-04-18T07:15:45.343Z,39.47
2023-04-18T07:18:18.014Z,39.74
2023-04-18T07:20:51.646Z,39.30
2023-04-18T07:23:20.189Z,39.91
2023-04-18T07:25:48.158Z,39.47
2023-04-18T07:28:17.615Z,39.22
2023-04-18T07:30:46.561Z,39.02
2023-04-18T07:33:15.352Z,38.81
2023-04-18T07:35:46.089Z,38.34
2023-04-18T07:38:14.036Z,38.11
2023-04-18T07:40:42.115Z,38.25
2023-04-18T07:43:10.058Z,38.49
2023-04-18T07:45:38.663Z,38.39
2023-04-18T07:48:07.806Z,39.21
2023-04-18T07:50:37.247Z,40.07
2023-04-18T07:53:05.188Z,39.98
2023-04-18T07:55:33.681Z,39.50
2023-04-18T07:58:01.847Z,39.47
2023-04-18T08:00:32.762Z,39.38
2023-04-18T08:03:01.201Z,39.12
2023-04-18T08:05:29.555Z,39.13
2023-04-18T08:07:57.414Z,38.76
2023-04-18T08:10:26.207Z,38.51
2023-04-18T08:12:54.063Z,38.29
2023-04-18T08:15:21.960Z,38.62
2023-04-18T08:17:51.728Z,39.28
2023-04-18T08:20:19.894Z,38.75
2023-04-18T08:23:05.098Z,38.03
2023-04-18T08:25:36.713Z,37.67
2023-04-18T08:28:06.663Z,37.68
2023-04-18T08:30:35.465Z,37.80
2023-04-18T08:33:03.488Z,37.78
2023-04-18T08:35:31.514Z,37.69
2023-04-18T08:38:03.078Z,37.69
2023-04-18T08:40:31.078Z,38.01
2023-04-18T08:42:59.337Z,38.53
2023-04-18T08:45:28.891Z,39.30
2023-04-18T08:47:58.926Z,39.06
2023-04-18T08:50:27.796Z,39.26
2023-04-18T08:52:56.211Z,39.57
2023-04-18T08:55:24.224Z,39.72
2023-04-18T08:57:54.607Z,39.85
2023-04-18T09:00:23.762Z,40.28
2023-04-18T09:02:56.853Z,40.40
2023-04-18T09:05:26.826Z,39.98
2023-04-18T09:07:55.272Z,40.28
2023-04-18T09:10:29.957Z,40.22
2023-04-18T09:12:58.526Z,39.46
2023-04-18T09:15:27.329Z,39.43
2023-04-18T09:17:58.389Z,39.85
2023-04-18T09:20:41.450Z,38.68
2023-04-18T09:23:11.197Z,38.48
2023-04-18T09:25:45.245Z,38.76
2023-04-18T09:28:28.826Z,38.44
2023-04-18T09:31:17.908Z,38.10
2023-04-18T09:33:56.980Z,38.49
2023-04-18T09:36:29.249Z,38.99
2023-04-18T09:38:57.514Z,38.85
2023-04-18T09:41:27.586Z,38.45
2023-04-18T09:44:13.515Z,38.73
2023-04-18T09:46:46.653Z,39.02
2023-04-18T09:49:17.264Z,39.31
2023-04-18T09:51:46.329Z,39.28
2023-04-18T09:54:18.227Z,39.37
2023-04-18T09:56:47.007Z,38.63
2023-04-18T09:59:18.681Z,37.96
2023-04-18T10:01:48.634Z,38.21
2023-04-18T10:04:17.044Z,37.15
2023-04-18T10:06:45.826Z,36.66
2023-04-18T10:09:16.154Z,36.40
2023-04-18T10:11:44.525Z,37.06
2023-04-18T10:14:13.880Z,37.32
2023-04-18T10:16:42.349Z,37.45
2023-04-18T10:19:26.957Z,36.49
2023-04-18T10:21:59.141Z,36.39
2023-04-18T10:24:49.929Z,36.36
2023-04-18T10:27:19.611Z,36.12
2023-04-18T10:29:51.521Z,35.19
2023-04-18T10:32:23.593Z,34.56
2023-04-18T10:34:53.900Z,34.31
2023-04-18T10:37:22.097Z,34.00
2023-04-18T10:40:11.239Z,33.46
2023-04-18T10:42:45.844Z,34.00
2023-04-18T10:45:21.052Z,34.33
2023-04-18T10:47:50.370Z,33.87
2023-04-18T10:50:18.305Z,34.30
2023-04-18T10:52:47.312Z,33.96
2023-04-18T10:55:17.764Z,33.29
2023-04-18T10:57:47.277Z,33.29
2023-04-18T11:00:17.609Z,33.37
2023-04-18T11:02:50.299Z,33.54
2023-04-18T11:05:19.805Z,33.28
2023-04-18T11:07:50.421Z,33.12
2023-04-18T11:10:20.533Z,33.34
2023-04-18T11:12:48.601Z,33.31
2023-04-18T11:15:26.296Z,33.06
2023-04-18T11:17:55.892Z,34.06
2023-04-18T11:20:23.924Z,34.90
2023-04-18T11:22:53.752Z,35.06
2023-04-18T11:25:30.554Z,35.04
2023-04-18T11:27:59.934Z,36.15
2023-04-18T11:30:29.270Z,36.27
2023-04-18T11:32:57.235Z,36.23
2023-04-18T11:35:25.551Z,37.45
2023-04-18T11:37:54.307Z,37.64
2023-04-18T11:40:22.229Z,39.48
2023-04-18T11:42:50.436Z,40.97
2023-04-18T11:45:18.367Z,41.64
2023-04-18T11:47:46.372Z,42.45
2023-04-18T11:50:14.494Z,42.62
2023-04-18T11:52:42.921Z,43.64
2023-04-18T11:55:21.375Z,44.68
2023-04-18T11:57:53.971Z,44.84
2023-04-18T12:00:31.243Z,45.94
2023-04-18T12:02:59.934Z,46.74
2023-04-18T12:05:35.878Z,47.31
2023-04-18T12:08:11.932Z,48.17
2023-04-18T12:10:52.919Z,45.61
2023-04-18T12:13:31.889Z,47.34
2023-04-18T12:16:01.740Z,47.51
2023-04-18T12:18:31.574Z,48.61
2023-04-18T12:21:02.004Z,48.32
2023-04-18T12:23:42.519Z,49.66
2023-04-18T12:26:15.152Z,49.85
2023-04-18T12:28:44.859Z,50.56
2023-04-18T12:31:13.018Z,51.15
2023-04-18T12:33:41.119Z,51.68
2023-04-18T12:36:10.564Z,51.85
2023-04-18T12:38:38.522Z,53.33
2023-04-18T12:41:06.730Z,54.00
2023-04-18T12:43:36.312Z,54.64
2023-04-18T12:46:04.187Z,55.16
2023-04-18T12:48:32.721Z,55.80
2023-04-18T12:51:00.741Z,55.78
2023-04-18T12:53:28.805Z,56.03
2023-04-18T12:55:56.671Z,56.70
2023-04-18T12:58:24.546Z,56.76
2023-04-18T13:00:52.630Z,57.52
2023-04-18T13:03:21.308Z,58.26
2023-04-18T13:05:49.384Z,59.03
2023-04-18T13:08:18.230Z,59.44
2023-04-18T13:10:47.700Z,59.66
2023-04-18T13:13:16.202Z,59.82
2023-04-18T13:15:44.349Z,59.85
2023-04-18T13:18:12.283Z,60.00
2023-04-18T13:20:40.700Z,60.33
2023-04-18T13:23:08.937Z,60.83
2023-04-18T13:25:38.774Z,61.53
2023-04-18T13:28:06.895Z,61.01
2023-04-18T13:30:35.990Z,61.36
2023-04-18T13:33:04.511Z,61.21
2023-04-18T13:35:32.516Z,61.40
2023-04-18T13:38:00.732Z,60.52
2023-04-18T13:40:28.959Z,60.93
2023-04-18T13:42:57.868Z,61.70
2023-04-18T13:45:25.809Z,60.83
2023-04-18T13:47:54.144Z,61.79
2023-04-18T13:50:24.455Z,61.23
2023-04-18T13:52:54.648Z,61.54
2023-04-18T13:55:22.924Z,60.94
2023-04-18T13:57:51.316Z,61.78
2023-04-18T14:00:19.720Z,61.79
2023-04-18T14:02:48.075Z,62.00
2023-04-18T14:05:16.418Z,60.95
2023-04-18T14:07:44.615Z,59.26
2023-04-18T14:10:12.786Z,58.84
2023-04-18T14:12:41.008Z,58.28
2023-04-18T14:15:10.927Z,57.52
2023-04-18T14:17:39.116Z,58.50
2023-04-18T14:20:08.602Z,57.79
2023-04-18T14:22:37.009Z,56.90
2023-04-18T14:25:05.420Z,56.99
2023-04-18T14:27:33.675Z,56.49
2023-04-18T14:30:01.603Z,56.77
2023-04-18T14:32:30.467Z,56.66
2023-04-18T14:34:59.355Z,56.77
2023-04-18T14:37:27.863Z,56.38
2023-04-18T14:39:55.959Z,56.45
2023-04-18T14:42:23.927Z,56.48
2023-04-18T14:44:51.867Z,56.25
2023-04-18T14:47:20.061Z,56.88
2023-04-18T14:49:48.232Z,57.34
2023-04-18T14:52:16.213Z,56.69
2023-04-18T14:54:44.268Z,56.96
2023-04-18T14:57:13.019Z,56.29
2023-04-18T14:59:41.022Z,57.24
2023-04-18T15:02:09.061Z,56.95
2023-04-18T15:04:37.406Z,56.26
2023-04-18T15:07:05.614Z,55.02
2023-04-18T15:09:40.001Z,55.91
2023-04-18T15:12:09.212Z,55.20
2023-04-18T15:14:37.828Z,55.73
2023-04-18T15:17:05.860Z,54.85
2023-04-18T15:19:34.547Z,55.22
2023-04-18T15:24:43.868Z,55.29
2023-04-18T15:27:11.874Z,54.87
2023-04-18T15:29:39.824Z,55.45
2023-04-18T15:32:08.129Z,54.16
2023-04-18T15:34:36.182Z,55.01
2023-04-18T15:37:04.775Z,55.16
2023-04-18T15:39:32.769Z,55.66
2023-04-18T15:42:00.735Z,55.05
2023-04-18T15:44:30.824Z,54.93
2023-04-18T15:47:01.158Z,54.69
2023-04-18T15:49:29.616Z,55.64
2023-04-18T15:51:57.554Z,55.03
2023-04-18T15:54:26.284Z,54.52
2023-04-18T15:56:54.295Z,53.96
2023-04-18T15:59:22.301Z,54.48
2023-04-18T16:01:50.339Z,54.92
2023-04-18T16:04:18.376Z,54.28
2023-04-18T16:06:46.378Z,53.44
2023-04-18T16:09:14.598Z,53.85
2023-04-18T16:11:42.570Z,54.31
2023-04-18T16:14:10.555Z,54.33
2023-04-18T16:16:38.542Z,53.67
2023-04-18T16:19:06.481Z,54.23
2023-04-18T16:21:34.611Z,54.28
2023-04-18T16:24:02.550Z,54.76
2023-04-18T16:26:30.699Z,53.91
2023-04-18T16:28:59.106Z,53.92
2023-04-18T16:31:27.068Z,54.06
2023-04-18T16:33:56.256Z,54.08
2023-04-18T16:36:24.232Z,53.21
2023-04-18T16:38:52.170Z,53.10
2023-04-18T16:41:20.178Z,53.36
2023-04-18T16:43:48.186Z,54.12
2023-04-18T16:46:16.192Z,54.00
2023-04-18T16:48:45.336Z,53.49
2023-04-18T16:51:14.668Z,52.94
2023-04-18T16:53:46.009Z,53.16
2023-04-18T16:56:15.755Z,53.75
2023-04-18T16:58:43.674Z,53.82
2023-04-18T17:01:11.644Z,53.48
2023-04-18T17:03:39.901Z,53.12
2023-04-18T17:06:08.020Z,53.64
2023-04-18T17:08:37.304Z,54.18
2023-04-18T17:11:05.302Z,53.82
2023-04-18T17:13:33.300Z,53.41
2023-04-18T17:16:01.336Z,53.85
2023-04-18T17:18:29.641Z,54.31
2023-04-18T17:20:57.771Z,54.49
2023-04-18T17:23:25.952Z,53.52
2023-04-18T17:25:56.029Z,53.46
2023-04-18T17:28:23.918Z,53.88
2023-04-18T17:30:52.151Z,54.16
2023-04-18T17:33:21.214Z,54.16
2023-04-18T17:35:50.426Z,53.89
2023-04-18T17:38:18.358Z,53.46
2023-04-18T17:40:46.368Z,54.06
2023-04-18T17:43:14.443Z,54.24
2023-04-18T17:45:42.634Z,54.32
2023-04-18T17:48:10.705Z,53.46
2023-04-18T17:50:38.809Z,53.93
2023-04-18T17:53:06.684Z,54.55
2023-04-18T17:55:35.697Z,54.94
2023-04-18T17:58:05.192Z,54.16
2023-04-18T18:00:33.379Z,54.57
2023-04-18T18:03:02.491Z,54.68
2023-04-18T18:05:32.371Z,55.05
2023-04-18T18:08:01.076Z,53.61
2023-04-18T18:10:31.219Z,53.96
2023-04-18T18:12:59.152Z,53.72
2023-04-18T18:15:27.061Z,54.30
2023-04-18T18:17:56.397Z,54.05
2023-04-18T18:20:24.539Z,53.69
2023-04-18T18:22:52.740Z,53.59
2023-04-18T18:25:20.926Z,53.97
2023-04-18T18:27:49.980Z,54.11
2023-04-18T18:30:19.002Z,52.73
2023-04-18T18:32:47.032Z,53.15
2023-04-18T18:35:16.216Z,53.18
2023-04-18T18:37:44.431Z,53.36
2023-04-18T18:40:12.600Z,53.24
2023-04-18T18:42:42.632Z,53.62
2023-04-18T18:45:10.633Z,53.57
2023-04-18T18:47:40.006Z,52.86
2023-04-18T18:50:08.672Z,52.76
2023-04-18T18:52:37.066Z,53.32
2023-04-18T18:55:07.406Z,53.29
2023-04-18T18:57:35.594Z,53.03
2023-04-18T19:00:10.995Z,53.03
2023-04-18T19:02:39.764Z,53.04
2023-04-18T19:05:08.177Z,52.99
2023-04-18T19:07:41.775Z,53.26
2023-04-18T19:10:10.382Z,52.70
2023-04-18T19:12:38.389Z,52.18
2023-04-18T19:15:07.117Z,52.18
2023-04-18T19:17:35.901Z,52.67
2023-04-18T19:20:04.252Z,52.65
2023-04-18T19:22:32.577Z,52.55
2023-04-18T19:25:00.987Z,52.49
2023-04-18T19:27:29.078Z,52.62
2023-04-18T19:29:57.159Z,52.56
2023-04-18T19:32:26.905Z,52.35
2023-04-18T19:34:54.798Z,52.40
2023-04-18T19:37:23.120Z,51.71
2023-04-18T19:39:51.071Z,51.83
2023-04-18T19:42:18.989Z,52.08
2023-04-18T19:44:46.992Z,51.86
2023-04-18T19:47:15.453Z,51.69
2023-04-18T19:49:44.424Z,52.05
2023-04-18T19:52:14.792Z,51.64
2023-04-18T19:54:42.674Z,52.03
2023-04-18T19:57:12.583Z,51.86
2023-04-18T19:59:40.704Z,51.96
2023-04-18T20:02:09.130Z,51.87
2023-04-18T20:04:37.641Z,52.60
2023-04-18T20:07:05.728Z,52.14
2023-04-18T20:09:33.616Z,51.28
2023-04-18T20:12:02.918Z,51.63
2023-04-18T20:14:31.948Z,51.67
2023-04-18T20:16:59.827Z,51.56
2023-04-18T20:19:29.836Z,51.46
2023-04-18T20:21:58.026Z,51.43
2023-04-18T20:24:28.175Z,51.39
2023-04-18T20:26:59.024Z,51.25
2023-04-18T20:29:27.911Z,51.23
2023-04-18T20:31:56.113Z,51.33
2023-04-18T20:34:24.630Z,51.38
2023-04-18T20:36:52.632Z,51.80
2023-04-18T20:39:20.831Z,51.50
2023-04-18T20:41:52.496Z,50.93
2023-04-18T20:44:21.807Z,51.18
2023-04-18T20:46:49.804Z,50.84
2023-04-18T20:49:17.835Z,50.61
2023-04-18T20:51:46.137Z,50.57
2023-04-18T20:54:14.427Z,50.65
2023-04-18T20:56:42.633Z,50.46
2023-04-18T20:59:10.554Z,50.39
2023-04-18T21:01:38.642Z,50.21
2023-04-18T21:04:06.704Z,50.41
2023-04-18T21:06:35.107Z,50.12
2023-04-18T21:09:03.026Z,50.21
2023-04-18T21:11:31.421Z,50.51
2023-04-18T21:13:59.777Z,50.03
2023-04-18T21:16:27.710Z,50.11
2023-04-18T21:18:55.788Z,49.95
2023-04-18T21:21:24.379Z,49.74
2023-04-18T21:23:52.373Z,49.33
2023-04-18T21:26:20.679Z,49.55
2023-04-18T21:28:59.193Z,49.20
2023-04-18T21:31:29.049Z,49.01
2023-04-18T21:33:58.128Z,48.74
2023-04-18T21:36:27.073Z,48.57
2023-04-18T21:38:55.529Z,48.55
2023-04-18T21:41:23.619Z,48.31
2023-04-18T21:43:51.687Z,48.01
2023-04-18T21:46:19.863Z,47.97
2023-04-18T21:48:48.285Z,48.26
2023-04-18T21:51:16.920Z,48.52
2023-04-18T21:53:45.935Z,48.64
2023-04-18T21:56:14.294Z,48.51
2023-04-18T21:58:42.393Z,48.60
2023-04-18T22:01:10.522Z,48.36
2023-04-18T22:03:38.704Z,48.07
2023-04-18T22:06:06.803Z,48.37
2023-04-18T22:08:34.781Z,48.17
2023-04-18T22:11:02.736Z,47.61
2023-04-18T22:13:33.204Z,47.14
2023-04-18T22:16:03.531Z,46.78
2023-04-18T22:18:34.547Z,46.31
2023-04-18T22:21:03.409Z,46.28
2023-04-18T22:23:31.672Z,45.64
2023-04-18T22:25:59.581Z,45.36
2023-04-18T22:28:30.382Z,45.42
2023-04-18T22:30:58.370Z,45.32
2023-04-18T22:33:26.731Z,45.21
2023-04-18T22:35:55.818Z,45.19
2023-04-18T22:38:25.081Z,44.97
2023-04-18T22:40:53.086Z,44.89
2023-04-18T22:43:24.053Z,44.69
2023-04-18T22:45:52.407Z,44.52
2023-04-18T22:48:20.609Z,44.73
2023-04-18T22:50:50.050Z,44.53
2023-04-18T22:53:18.400Z,44.70
2023-04-18T22:55:47.357Z,44.81
2023-04-18T22:58:15.252Z,44.93
2023-04-18T23:00:43.131Z,44.94
2023-04-18T23:03:11.428Z,45.25
2023-04-18T23:05:40.271Z,45.19
2023-04-18T23:08:08.485Z,45.22
2023-04-18T23:10:36.588Z,45.22
2023-04-18T23:13:04.596Z,45.51
2023-04-18T23:15:32.672Z,45.72
2023-04-18T23:18:00.762Z,46.07
2023-04-18T23:20:29.467Z,46.00
2023-04-18T23:22:57.352Z,46.05
2023-04-18T23:25:25.430Z,46.04
2023-04-18T23:27:53.298Z,46.25
2023-04-18T23:30:21.164Z,46.03
2023-04-18T23:32:49.184Z,46.10
2023-04-18T23:35:17.326Z,46.03
2023-04-18T23:37:45.703Z,46.08
2023-04-18T23:40:13.660Z,46.23
2023-04-18T23:42:42.222Z,46.50
2023-04-18T23:45:10.817Z,46.61
2023-04-18T23:47:39.758Z,46.75
2023-04-18T23:50:09.733Z,46.59
2023-04-18T23:52:38.811Z,46.45
2023-04-18T23:55:06.968Z,46.45
2023-04-18T23:57:35.071Z,46.13
